createdAt,value
2022-10-20T00:02:22.679Z,5.90
2022-10-20T00:05:08.622Z,5.90
2022-10-20T00:07:54.229Z,5.80
2022-10-20T00:10:39.632Z,5.70
2022-10-20T00:13:25.635Z,5.60
2022-10-20T00:16:12.227Z,5.60
2022-10-20T00:19:01.146Z,5.60
2022-10-20T00:21:46.344Z,5.50
2022-10-20T00:24:31.789Z,5.50
2022-10-20T00:27:17.376Z,5.50
2022-10-20T00:30:02.781Z,5.40
2022-10-20T00:32:50.661Z,5.50
2022-10-20T00:35:39.413Z,5.50
2022-10-20T00:38:27.227Z,5.50
2022-10-20T00:41:20.530Z,5.50
2022-10-20T00:44:43.454Z,5.40
2022-10-20T00:47:53.948Z,5.40
2022-10-20T00:50:47.747Z,5.40
2022-10-20T00:53:35.815Z,5.30
2022-10-20T00:56:22.315Z,5.30
2022-10-20T00:59:08.521Z,5.30
2022-10-20T01:01:57.872Z,5.40
2022-10-20T01:04:43.843Z,5.30
2022-10-20T01:07:31.131Z,5.30
2022-10-20T01:10:17.667Z,5.30
2022-10-20T01:13:21.534Z,5.20
2022-10-20T01:16:06.898Z,5.20
2022-10-20T01:19:33.829Z,5.30
2022-10-20T01:22:37.822Z,5.30
2022-10-20T01:25:50.528Z,5.30
2022-10-20T01:29:05.145Z,5.30
2022-10-20T01:32:03.670Z,5.30
2022-10-20T01:34:59.731Z,5.30
2022-10-20T01:38:04.402Z,5.30
2022-10-20T01:41:15.543Z,5.30
2022-10-20T01:44:08.390Z,5.20
2022-10-20T01:46:54.894Z,5.30
2022-10-20T01:49:44.480Z,5.20
2022-10-20T01:52:30.342Z,5.30
2022-10-20T01:55:18.294Z,5.20
2022-10-20T01:58:36.720Z,5.20
2022-10-20T02:01:28.849Z,5.20
2022-10-20T02:04:15.000Z,5.20
2022-10-20T02:07:15.599Z,5.10
2022-10-20T02:10:12.669Z,5.10
2022-10-20T02:13:02.658Z,5.00
2022-10-20T02:15:55.684Z,5.00
2022-10-20T02:18:43.574Z,5.00
2022-10-20T02:21:31.738Z,5.00
2022-10-20T02:24:18.702Z,5.10
2022-10-20T02:27:16.871Z,5.10
2022-10-20T02:30:09.794Z,5.10
2022-10-20T02:32:55.082Z,5.00
2022-10-20T02:35:48.422Z,5.00
2022-10-20T02:38:36.204Z,5.00
2022-10-20T02:41:21.769Z,4.90
2022-10-20T02:44:09.457Z,4.90
2022-10-20T02:46:55.009Z,4.90
2022-10-20T02:49:40.530Z,5.00
2022-10-20T02:52:29.064Z,4.90
2022-10-20T02:55:14.734Z,4.90
2022-10-20T02:58:02.608Z,4.90
2022-10-20T03:00:50.422Z,4.80
2022-10-20T03:03:35.770Z,4.80
2022-10-20T03:06:24.230Z,4.80
2022-10-20T03:09:09.418Z,4.80
2022-10-20T03:11:57.766Z,4.80
2022-10-20T03:14:43.155Z,4.80
2022-10-20T03:17:28.798Z,4.80
2022-10-20T03:20:18.789Z,4.80
2022-10-20T03:23:04.093Z,4.70
2022-10-20T03:25:50.002Z,4.70
2022-10-20T03:28:38.559Z,4.70
2022-10-20T03:31:26.029Z,4.70
2022-10-20T03:34:12.742Z,4.80
2022-10-20T03:37:00.817Z,4.70
2022-10-20T03:39:48.294Z,4.70
2022-10-20T03:42:33.594Z,4.60
2022-10-20T03:45:19.651Z,4.60
2022-10-20T03:48:05.567Z,4.70
2022-10-20T03:50:52.847Z,4.60
2022-10-20T03:53:38.215Z,4.50
2022-10-20T03:56:25.968Z,4.50
2022-10-20T03:59:13.863Z,4.50
2022-10-20T04:02:01.910Z,4.50
2022-10-20T04:04:47.622Z,4.50
2022-10-20T04:07:35.283Z,4.50
2022-10-20T04:10:21.632Z,4.50
2022-10-20T04:13:09.205Z,4.50
2022-10-20T04:15:55.069Z,4.50
2022-10-20T04:18:43.272Z,4.50
2022-10-20T04:21:28.480Z,4.50
2022-10-20T04:24:13.994Z,4.50
2022-10-20T04:26:59.883Z,4.50
2022-10-20T04:29:47.152Z,4.40
2022-10-20T04:32:32.675Z,4.40
2022-10-20T04:35:20.639Z,4.40
2022-10-20T04:38:09.707Z,4.30
2022-10-20T04:41:01.887Z,4.30
2022-10-20T04:43:53.960Z,4.30
2022-10-20T04:46:45.218Z,4.30
2022-10-20T04:49:30.491Z,4.30
2022-10-20T04:52:18.010Z,4.30
2022-10-20T04:55:08.694Z,4.30
2022-10-20T04:57:54.294Z,4.30
2022-10-20T05:00:41.789Z,4.30
2022-10-20T05:03:30.599Z,4.20
2022-10-20T05:06:22.368Z,4.20
2022-10-20T05:09:08.000Z,4.20
2022-10-20T05:11:55.774Z,4.20
2022-10-20T05:14:40.895Z,4.20
2022-10-20T05:17:31.241Z,4.20
2022-10-20T05:20:16.666Z,4.20
2022-10-20T05:23:02.162Z,4.30
2022-10-20T05:25:47.851Z,4.20
2022-10-20T05:28:33.197Z,4.20
2022-10-20T05:31:21.464Z,4.10
2022-10-20T05:34:09.562Z,4.20
2022-10-20T05:36:54.966Z,4.20
2022-10-20T05:39:40.181Z,4.20
2022-10-20T05:42:25.683Z,4.30
2022-10-20T05:45:11.300Z,4.30
2022-10-20T05:47:56.732Z,4.30
2022-10-20T05:50:41.991Z,4.30
2022-10-20T05:53:27.514Z,4.30
2022-10-20T05:56:17.521Z,4.30
2022-10-20T05:59:03.364Z,4.30
2022-10-20T06:01:49.025Z,4.30
2022-10-20T06:04:34.872Z,4.30
2022-10-20T06:07:22.906Z,4.20
2022-10-20T06:10:08.567Z,4.30
2022-10-20T06:12:56.022Z,4.30
2022-10-20T06:15:47.519Z,4.40
2022-10-20T06:18:33.472Z,4.30
2022-10-20T06:21:24.052Z,4.40
2022-10-20T06:24:10.680Z,4.40
2022-10-20T06:26:56.592Z,4.40
2022-10-20T06:29:41.746Z,4.50
2022-10-20T06:32:27.411Z,4.50
2022-10-20T06:35:13.028Z,4.50
2022-10-20T06:37:59.592Z,4.50
2022-10-20T06:40:44.977Z,4.50
2022-10-20T06:43:30.907Z,4.60
2022-10-20T06:46:18.612Z,4.60
2022-10-20T06:49:08.901Z,4.70
2022-10-20T06:51:54.684Z,4.70
2022-10-20T06:54:40.101Z,4.80
2022-10-20T06:57:28.015Z,4.90
2022-10-20T07:00:16.543Z,4.90
2022-10-20T07:03:03.257Z,5.00
2022-10-20T07:05:49.311Z,5.00
2022-10-20T07:08:36.421Z,5.10
2022-10-20T07:11:25.015Z,5.20
2022-10-20T07:14:13.550Z,5.30
2022-10-20T07:16:59.918Z,5.30
2022-10-20T07:19:45.133Z,5.30
2022-10-20T07:22:30.757Z,5.40
2022-10-20T07:25:22.453Z,5.40
2022-10-20T07:28:10.623Z,5.50
2022-10-20T07:30:55.904Z,5.60
2022-10-20T07:33:41.914Z,5.60
2022-10-20T07:36:35.645Z,5.70
2022-10-20T07:39:21.875Z,5.70
2022-10-20T07:42:07.022Z,5.70
2022-10-20T07:44:52.556Z,5.90
2022-10-20T07:47:39.610Z,5.90
2022-10-20T07:50:26.920Z,6.00
2022-10-20T07:53:14.709Z,6.10
2022-10-20T07:56:01.406Z,6.20
2022-10-20T07:58:50.458Z,6.20
2022-10-20T08:01:36.275Z,6.30
2022-10-20T08:04:22.263Z,6.40
2022-10-20T08:07:07.547Z,6.50
2022-10-20T08:09:56.425Z,6.60
2022-10-20T08:12:41.789Z,6.60
2022-10-20T08:15:27.561Z,6.70
2022-10-20T08:18:22.189Z,6.80
2022-10-20T08:21:17.850Z,7.00
2022-10-20T08:24:05.512Z,7.10
2022-10-20T08:26:50.698Z,7.30
2022-10-20T08:29:39.015Z,7.40
2022-10-20T08:32:24.827Z,7.40
2022-10-20T08:35:10.641Z,7.60
2022-10-20T08:37:55.926Z,7.80
2022-10-20T08:40:43.970Z,7.80
2022-10-20T08:43:31.645Z,8.00
2022-10-20T08:46:21.065Z,8.10
2022-10-20T08:49:20.027Z,8.20
2022-10-20T08:52:15.484Z,8.30
2022-10-20T08:55:05.462Z,8.40
2022-10-20T08:57:50.922Z,8.50
2022-10-20T09:00:39.204Z,8.60
2022-10-20T09:03:30.575Z,8.60
2022-10-20T09:06:16.978Z,8.70
2022-10-20T09:09:02.614Z,8.80
2022-10-20T09:11:49.251Z,8.80
2022-10-20T09:14:41.294Z,8.90
2022-10-20T09:17:26.696Z,8.90
2022-10-20T09:20:25.991Z,9.00
2022-10-20T09:23:39.884Z,9.10
2022-10-20T09:26:58.115Z,9.20
2022-10-20T09:29:45.561Z,9.30
2022-10-20T09:32:51.638Z,9.40
2022-10-20T09:35:39.490Z,9.40
2022-10-20T09:38:35.614Z,9.60
2022-10-20T09:41:25.246Z,9.70
2022-10-20T09:44:17.232Z,9.80
2022-10-20T09:47:05.580Z,9.90
2022-10-20T09:50:01.506Z,10.10
2022-10-20T09:52:48.017Z,10.20
2022-10-20T09:55:42.279Z,10.30
2022-10-20T09:58:42.117Z,10.40
2022-10-20T10:01:28.263Z,10.50
2022-10-20T10:04:31.725Z,10.60
2022-10-20T10:07:28.915Z,10.80
2022-10-20T10:10:19.235Z,10.80
2022-10-20T10:16:08.865Z,11.00
2022-10-20T10:19:04.834Z,11.00
2022-10-20T10:21:59.110Z,11.20
2022-10-20T10:24:49.676Z,11.30
2022-10-20T10:27:36.648Z,11.40
2022-10-20T10:30:30.138Z,11.50
2022-10-20T10:33:27.986Z,11.60
2022-10-20T10:36:34.753Z,11.70
2022-10-20T10:39:20.612Z,11.90
2022-10-20T10:42:34.702Z,12.00
2022-10-20T10:46:20.429Z,12.10
2022-10-20T10:49:25.216Z,12.20
2022-10-20T10:52:14.072Z,12.30
2022-10-20T10:55:47.074Z,12.40
2022-10-20T10:58:51.730Z,12.50
2022-10-20T11:02:04.722Z,12.50
2022-10-20T11:04:53.092Z,12.70
2022-10-20T11:08:04.980Z,12.70
2022-10-20T11:11:09.232Z,12.70
2022-10-20T11:17:10.780Z,12.90
2022-10-20T11:20:33.727Z,13.00
2022-10-20T11:26:39.410Z,13.10
2022-10-20T11:29:33.073Z,13.10
2022-10-20T11:32:39.589Z,13.10
2022-10-20T11:36:00.587Z,13.10
2022-10-20T11:39:06.677Z,13.10
2022-10-20T11:41:59.613Z,13.20
2022-10-20T11:44:47.088Z,13.20
2022-10-20T11:47:41.296Z,13.20
2022-10-20T11:50:30.693Z,13.20
2022-10-20T11:53:24.801Z,13.20
2022-10-20T11:56:15.911Z,13.30
2022-10-20T11:59:17.307Z,13.40
2022-10-20T12:02:23.001Z,13.40
2022-10-20T12:05:40.517Z,13.50
2022-10-20T12:08:37.508Z,13.60
2022-10-20T12:11:50.241Z,13.70
2022-10-20T12:14:46.534Z,13.90
2022-10-20T12:17:42.136Z,14.10
2022-10-20T12:20:27.495Z,14.10
2022-10-20T12:23:49.478Z,14.20
2022-10-20T12:26:42.444Z,14.30
2022-10-20T12:29:30.675Z,14.40
2022-10-20T12:32:24.264Z,14.60
2022-10-20T12:35:09.743Z,14.90
2022-10-20T12:38:05.466Z,15.30
2022-10-20T12:40:57.749Z,16.00
2022-10-20T12:43:53.061Z,18.50
2022-10-20T12:46:43.592Z,25.40
2022-10-20T12:49:34.595Z,29.40
2022-10-20T12:52:24.362Z,31.00
2022-10-20T12:55:31.644Z,32.20
2022-10-20T12:58:17.092Z,33.30
2022-10-20T13:01:05.943Z,33.90
2022-10-20T13:03:52.730Z,34.30
2022-10-20T13:06:40.970Z,36.80
2022-10-20T13:09:30.455Z,37.40
2022-10-20T13:12:30.691Z,32.40
2022-10-20T13:15:19.767Z,26.80
2022-10-20T13:18:11.739Z,23.40
2022-10-20T13:21:31.979Z,21.40
2022-10-20T13:24:37.401Z,20.00
2022-10-20T13:27:28.921Z,19.20
2022-10-20T13:30:21.455Z,18.40
2022-10-20T13:34:02.542Z,17.50
2022-10-20T13:37:07.268Z,17.00
2022-10-20T13:39:58.819Z,16.40
2022-10-20T13:43:27.301Z,16.10
2022-10-20T13:46:35.041Z,15.60
2022-10-20T13:49:52.904Z,15.30
2022-10-20T13:52:42.637Z,15.10
2022-10-20T13:55:50.272Z,15.00
2022-10-20T13:58:38.314Z,14.80
2022-10-20T14:01:24.884Z,14.60
2022-10-20T14:04:39.722Z,14.50
2022-10-20T14:07:25.575Z,14.40
2022-10-20T14:10:24.382Z,14.40
2022-10-20T14:13:17.016Z,14.30
2022-10-20T14:16:12.226Z,14.20
2022-10-20T14:19:09.127Z,14.20
2022-10-20T14:21:57.933Z,14.00
2022-10-20T14:24:46.277Z,13.90
2022-10-20T14:27:35.635Z,13.80
2022-10-20T14:30:24.697Z,13.90
2022-10-20T14:33:16.036Z,13.90
2022-10-20T14:36:02.769Z,13.90
2022-10-20T14:38:52.631Z,13.80
2022-10-20T14:41:37.989Z,13.80
2022-10-20T14:44:31.537Z,13.80
2022-10-20T14:47:18.741Z,13.70
2022-10-20T14:50:06.097Z,13.80
2022-10-20T14:52:54.503Z,13.80
2022-10-20T14:55:40.179Z,13.70
2022-10-20T14:58:38.991Z,13.60
2022-10-20T15:01:29.103Z,13.50
2022-10-20T15:04:29.975Z,13.40
2022-10-20T15:07:33.525Z,13.20
2022-10-20T15:10:24.472Z,13.10
2022-10-20T15:13:25.027Z,12.90
2022-10-20T15:16:32.945Z,12.80
2022-10-20T15:19:47.682Z,12.70
2022-10-20T15:22:33.444Z,12.50
2022-10-20T15:25:19.002Z,12.40
2022-10-20T15:28:05.399Z,12.30
2022-10-20T15:30:50.998Z,12.10
2022-10-20T15:33:36.649Z,12.10
2022-10-20T15:36:32.973Z,11.90
2022-10-20T15:39:18.779Z,11.70
2022-10-20T15:42:10.960Z,11.60
2022-10-20T15:45:02.517Z,11.50
2022-10-20T15:47:48.153Z,11.40
2022-10-20T15:50:33.717Z,11.30
2022-10-20T15:53:21.634Z,11.20
2022-10-20T15:56:08.270Z,11.10
2022-10-20T15:58:54.550Z,10.90
2022-10-20T16:01:42.410Z,10.80
2022-10-20T16:04:27.986Z,10.70
2022-10-20T16:07:15.638Z,10.60
2022-10-20T16:10:03.846Z,10.60
2022-10-20T16:12:50.142Z,10.60
2022-10-20T16:15:35.969Z,10.40
2022-10-20T16:18:21.541Z,10.40
2022-10-20T16:21:07.917Z,10.30
2022-10-20T16:23:53.180Z,10.20
2022-10-20T16:26:41.366Z,10.10
2022-10-20T16:29:27.009Z,10.10
2022-10-20T16:32:12.658Z,10.00
2022-10-20T16:35:00.786Z,9.90
2022-10-20T16:37:46.670Z,9.80
2022-10-20T16:40:32.594Z,9.80
2022-10-20T16:43:18.530Z,9.80
2022-10-20T16:46:06.308Z,9.60
2022-10-20T16:48:57.338Z,9.60
2022-10-20T16:51:43.154Z,9.50
2022-10-20T16:54:28.893Z,9.50
2022-10-20T16:57:15.185Z,9.60
2022-10-20T17:00:00.855Z,9.50
2022-10-20T17:02:48.802Z,9.50
2022-10-20T17:05:34.308Z,9.50
2022-10-20T17:08:19.915Z,9.40
2022-10-20T17:11:10.835Z,9.40
2022-10-20T17:13:57.813Z,9.30
2022-10-20T17:16:47.312Z,9.40
2022-10-20T17:19:35.709Z,9.70
2022-10-20T17:22:21.166Z,9.50
2022-10-20T17:25:07.466Z,9.40
2022-10-20T17:27:53.342Z,9.40
2022-10-20T17:30:46.044Z,9.30
2022-10-20T17:33:34.628Z,9.20
2022-10-20T17:36:26.156Z,9.20
2022-10-20T17:39:17.521Z,9.20
2022-10-20T17:42:05.258Z,9.10
2022-10-20T17:44:50.660Z,9.00
2022-10-20T17:47:38.298Z,9.10
2022-10-20T17:50:27.327Z,9.10
2022-10-20T17:53:12.489Z,8.90
2022-10-20T17:56:06.381Z,9.00
2022-10-20T17:58:52.382Z,8.90
2022-10-20T18:01:42.875Z,8.90
2022-10-20T18:04:28.194Z,9.00
2022-10-20T18:07:18.324Z,8.90
2022-10-20T18:10:06.226Z,8.90
2022-10-20T18:12:51.484Z,8.90
2022-10-20T18:15:42.204Z,8.90
2022-10-20T18:18:27.611Z,8.80
2022-10-20T18:21:15.709Z,8.80
2022-10-20T18:24:04.192Z,8.80
2022-10-20T18:26:49.715Z,8.80
2022-10-20T18:29:35.245Z,8.80
2022-10-20T18:32:21.098Z,8.70
2022-10-20T18:35:09.908Z,8.70
2022-10-20T18:37:58.200Z,8.70
2022-10-20T18:40:43.833Z,8.70
2022-10-20T18:43:29.482Z,8.80
2022-10-20T18:46:17.102Z,8.80
2022-10-20T18:49:05.752Z,8.70
2022-10-20T18:51:51.303Z,8.70
2022-10-20T18:54:39.542Z,8.70
2022-10-20T18:57:27.044Z,8.70
2022-10-20T19:00:17.232Z,8.70
2022-10-20T19:03:07.734Z,8.60
2022-10-20T19:05:58.924Z,8.50
2022-10-20T19:08:45.209Z,8.40
2022-10-20T19:11:33.071Z,8.40
2022-10-20T19:14:18.487Z,8.30
2022-10-20T19:17:04.137Z,8.40
2022-10-20T19:19:50.375Z,8.40
2022-10-20T19:22:36.023Z,8.60
2022-10-20T19:25:25.743Z,8.50
2022-10-20T19:28:12.713Z,8.40
2022-10-20T19:30:58.298Z,8.50
2022-10-20T19:33:43.756Z,8.40
2022-10-20T19:36:31.836Z,8.40
2022-10-20T19:39:25.135Z,8.40
2022-10-20T19:42:15.223Z,8.40
2022-10-20T19:45:08.513Z,8.40
2022-10-20T19:47:54.024Z,8.20
2022-10-20T19:50:39.782Z,8.30
2022-10-20T19:53:25.848Z,8.40
2022-10-20T19:56:11.248Z,8.30
2022-10-20T19:58:56.869Z,8.30
2022-10-20T20:01:42.162Z,8.30
2022-10-20T20:04:33.754Z,8.20
2022-10-20T20:07:20.148Z,8.10
2022-10-20T20:10:06.123Z,8.10
2022-10-20T20:12:51.521Z,8.10
2022-10-20T20:15:37.123Z,8.20
2022-10-20T20:18:22.481Z,8.30
2022-10-20T20:21:11.149Z,8.10
2022-10-20T20:24:00.210Z,8.20
2022-10-20T20:26:47.083Z,8.20
2022-10-20T20:29:35.512Z,8.10
2022-10-20T20:32:20.682Z,8.10
2022-10-20T20:35:07.038Z,8.10
2022-10-20T20:37:52.911Z,8.10
2022-10-20T20:40:46.474Z,8.20
2022-10-20T20:43:34.721Z,8.20
2022-10-20T20:46:24.956Z,8.20
2022-10-20T20:49:12.861Z,8.30
2022-10-20T20:51:58.579Z,8.30
2022-10-20T20:54:44.138Z,8.40
2022-10-20T20:57:29.466Z,8.40
2022-10-20T21:00:17.412Z,8.40
2022-10-20T21:03:03.429Z,8.50
2022-10-20T21:05:49.298Z,8.50
2022-10-20T21:08:38.693Z,8.60
2022-10-20T21:11:29.802Z,8.70
2022-10-20T21:14:15.616Z,8.70
2022-10-20T21:17:01.342Z,8.80
2022-10-20T21:19:46.962Z,8.90
2022-10-20T21:22:32.575Z,8.90
2022-10-20T21:25:25.755Z,9.00
2022-10-20T21:28:11.333Z,8.90
2022-10-20T21:31:00.163Z,9.00
2022-10-20T21:33:50.566Z,9.10
2022-10-20T21:36:37.746Z,9.10
2022-10-20T21:39:25.786Z,9.10
2022-10-20T21:42:11.530Z,9.10
2022-10-20T21:44:56.968Z,9.10
2022-10-20T21:47:43.808Z,9.10
2022-10-20T21:50:35.489Z,9.10
2022-10-20T21:53:20.769Z,9.20
2022-10-20T21:56:07.590Z,9.20
2022-10-20T21:58:53.806Z,9.30
2022-10-20T22:01:39.320Z,9.40
2022-10-20T22:04:27.074Z,9.50
2022-10-20T22:07:12.743Z,9.50
2022-10-20T22:10:00.215Z,9.70
2022-10-20T22:12:46.629Z,9.80
2022-10-20T22:15:40.634Z,9.80
2022-10-20T22:18:26.264Z,9.90
2022-10-20T22:21:15.072Z,9.90
2022-10-20T22:24:00.927Z,9.90
2022-10-20T22:26:47.138Z,9.90
2022-10-20T22:29:37.097Z,10.00
2022-10-20T22:32:22.491Z,10.00
2022-10-20T22:35:17.396Z,10.00
2022-10-20T22:38:03.447Z,10.00
2022-10-20T22:40:50.857Z,10.00
2022-10-20T22:43:36.312Z,10.00
2022-10-20T22:46:21.884Z,10.00
2022-10-20T22:49:10.201Z,10.00
2022-10-20T22:51:55.667Z,10.00
2022-10-20T22:54:40.982Z,10.00
2022-10-20T22:57:28.862Z,9.90
2022-10-20T23:00:15.034Z,9.90
2022-10-20T23:03:02.433Z,9.80
2022-10-20T23:05:48.164Z,9.70
2022-10-20T23:08:43.158Z,9.60
2022-10-20T23:11:31.838Z,9.60
2022-10-20T23:14:17.915Z,9.60
2022-10-20T23:17:05.926Z,9.50
2022-10-20T23:19:51.304Z,9.50
2022-10-20T23:22:36.601Z,9.50
2022-10-20T23:25:22.414Z,9.50
2022-10-20T23:28:08.168Z,9.50
2022-10-20T23:30:55.530Z,9.50
2022-10-20T23:33:44.298Z,9.50
2022-10-20T23:36:30.106Z,9.50
2022-10-20T23:39:17.674Z,9.50
2022-10-20T23:42:07.194Z,9.50
2022-10-20T23:44:52.952Z,9.50
2022-10-20T23:47:38.490Z,9.50
2022-10-20T23:50:25.917Z,9.40
2022-10-20T23:53:11.979Z,9.40
2022-10-20T23:55:57.655Z,9.40
2022-10-20T23:58:45.455Z,9.40
